createdAt,value
2022-09-17T08:09:47.596Z,89.58
2022-09-17T08:10:48.937Z,89.93
2022-09-17T08:11:57.777Z,89.23
2022-09-17T08:33:33.933Z,80.91
2022-09-17T08:34:36.672Z,81.06
2022-09-17T08:35:37.989Z,79.27
2022-09-17T08:36:39.847Z,79.56
2022-09-17T08:37:41.378Z,79.05
2022-09-17T08:44:08.476Z,80.15
2022-09-17T08:45:14.493Z,78.87
2022-09-17T09:01:16.041Z,83.55
2022-09-17T09:02:27.677Z,82.27
2022-09-17T09:22:49.973Z,82.54
2022-09-17T09:24:07.869Z,81.07
2022-09-17T09:30:58.708Z,79.12
2022-09-17T09:32:16.281Z,78.44
2022-09-17T09:33:27.714Z,77.59
2022-09-17T09:34:33.596Z,77.41
2022-09-17T09:35:39.285Z,76.43
2022-09-17T09:36:41.114Z,75.19
2022-09-17T09:37:50.257Z,74.33
2022-09-17T09:39:15.751Z,73.72
2022-09-17T09:40:36.427Z,72.75
2022-09-17T09:41:54.291Z,72.14
2022-09-17T09:48:43.569Z,73.52
2022-09-17T10:08:14.877Z,61.81
2022-09-17T10:09:21.041Z,57.90
2022-09-17T10:10:22.406Z,58.14
2022-09-17T10:11:28.959Z,56.96
2022-09-17T10:12:30.304Z,55.57
2022-09-17T10:13:35.722Z,53.57
2022-09-17T10:14:38.612Z,52.97
2022-09-17T10:15:39.987Z,54.33
2022-09-17T10:16:41.448Z,54.10
2022-09-17T10:17:42.792Z,51.89
2022-09-17T10:18:44.754Z,51.49
2022-09-17T10:19:59.356Z,51.25
2022-09-17T10:21:01.445Z,49.63
2022-09-17T10:22:20.638Z,51.67
2022-09-17T10:23:24.017Z,51.57
2022-09-17T10:24:32.047Z,51.38
2022-09-17T10:25:34.991Z,54.33
2022-09-17T10:26:37.504Z,56.07
2022-09-17T10:27:45.272Z,54.69
2022-09-17T10:28:51.743Z,55.88
2022-09-17T10:30:08.445Z,56.59
2022-09-17T10:31:12.792Z,57.05
2022-09-17T10:32:20.895Z,59.16
2022-09-17T10:33:27.611Z,60.26
2022-09-17T10:34:32.923Z,61.75
2022-09-17T10:35:34.750Z,63.04
2022-09-17T10:36:44.651Z,61.37
2022-09-17T10:37:51.528Z,59.41
2022-09-17T10:38:52.930Z,57.96
2022-09-17T10:39:56.583Z,53.57
2022-09-17T10:41:14.642Z,56.19
2022-09-17T10:42:18.017Z,54.25
2022-09-17T10:43:23.239Z,54.97
2022-09-17T10:44:27.296Z,54.16
2022-09-17T10:45:31.141Z,55.52
2022-09-17T10:46:34.200Z,55.37
2022-09-17T10:47:43.790Z,57.85
2022-09-17T10:48:56.985Z,58.09
2022-09-17T10:50:07.448Z,58.35
2022-09-17T10:51:10.622Z,58.82
2022-09-17T10:52:18.195Z,58.58
2022-09-17T10:53:23.250Z,58.53
2022-09-17T10:54:35.461Z,58.15
2022-09-17T10:55:55.215Z,54.20
2022-09-17T10:56:59.603Z,55.27
2022-09-17T10:58:07.258Z,56.73
2022-09-17T10:59:22.250Z,55.61
2022-09-17T11:00:24.511Z,55.94
2022-09-17T11:01:31.945Z,58.34
2022-09-17T11:02:51.775Z,57.14
2022-09-17T11:04:04.908Z,56.45
2022-09-17T11:05:30.296Z,56.40
2022-09-17T11:07:08.988Z,56.82
2022-09-17T11:08:16.264Z,55.33
2022-09-17T11:09:52.341Z,53.27
2022-09-17T11:11:23.953Z,51.59
2022-09-17T11:12:42.722Z,53.12
2022-09-17T11:14:02.760Z,53.59
2022-09-17T11:15:19.365Z,53.17
2022-09-17T11:16:40.039Z,50.64
2022-09-17T11:18:09.700Z,49.93
2022-09-17T11:19:32.829Z,49.18
2022-09-17T11:20:55.894Z,49.67
2022-09-17T11:22:11.784Z,50.92
2022-09-17T11:23:49.876Z,52.44
2022-09-17T11:25:07.884Z,51.83
2022-09-17T11:26:46.528Z,51.06
2022-09-17T11:27:59.798Z,51.46
2022-09-17T11:29:15.968Z,49.62
2022-09-17T11:30:20.638Z,48.48
2022-09-17T11:31:36.850Z,48.81
2022-09-17T11:32:53.611Z,48.47
2022-09-17T11:34:13.094Z,49.20
2022-09-17T11:35:15.637Z,48.75
2022-09-17T11:36:26.922Z,48.51
2022-09-17T11:37:43.536Z,49.09
2022-09-17T11:38:49.125Z,50.67
2022-09-17T11:39:58.390Z,52.13
2022-09-17T11:41:06.486Z,50.01
2022-09-17T11:42:15.837Z,52.37
2022-09-17T11:43:21.560Z,53.73
2022-09-17T11:44:29.923Z,55.18
2022-09-17T11:45:39.497Z,55.66
2022-09-17T11:46:46.550Z,56.99
2022-09-17T11:48:04.520Z,57.54
2022-09-17T11:49:12.697Z,55.31
2022-09-17T11:50:30.458Z,54.84
2022-09-17T11:51:47.927Z,55.01
2022-09-17T11:53:26.754Z,55.31
2022-09-17T11:54:42.716Z,55.69
2022-09-17T11:56:05.413Z,55.36
2022-09-17T11:57:16.530Z,56.06
2022-09-17T11:58:32.425Z,54.65
2022-09-17T11:59:44.754Z,55.41
2022-09-17T12:00:55.328Z,55.62
2022-09-17T12:02:00.587Z,55.63
2022-09-17T12:03:12.237Z,55.81
2022-09-17T12:04:30.200Z,55.24
2022-09-17T12:05:37.475Z,54.79
2022-09-17T12:06:50.414Z,55.14
2022-09-17T12:08:00.792Z,55.34
2022-09-17T12:09:12.290Z,54.51
2022-09-17T12:10:34.127Z,54.46
2022-09-17T12:11:54.824Z,56.39
2022-09-17T12:13:14.033Z,56.88
2022-09-17T12:14:22.882Z,57.58
2022-09-17T12:19:49.032Z,63.58
2022-09-17T12:20:55.030Z,66.89
2022-09-17T12:28:00.393Z,76.20
2022-09-17T12:36:17.149Z,82.01
2022-09-17T13:03:03.284Z,88.83
2022-09-17T13:08:16.443Z,87.98
2022-09-17T13:09:26.789Z,87.79
2022-09-17T13:11:13.988Z,87.96
2022-09-17T13:12:27.553Z,86.65
2022-09-17T13:13:49.409Z,83.66
2022-09-17T13:15:26.672Z,83.26
2022-09-17T13:16:42.995Z,82.01
2022-09-17T13:18:27.445Z,82.58
2022-09-17T13:19:50.187Z,79.82
2022-09-17T13:21:03.796Z,76.10
2022-09-17T13:22:19.376Z,76.48
2022-09-17T13:23:38.012Z,75.52
2022-09-17T13:24:43.871Z,72.65
2022-09-17T13:25:54.200Z,72.32
2022-09-17T13:26:58.136Z,70.53
2022-09-17T13:28:11.206Z,73.25
2022-09-17T13:29:33.096Z,73.44
2022-09-17T13:31:00.145Z,71.83
2022-09-17T13:32:01.873Z,73.98
2022-09-17T13:33:03.997Z,74.61
2022-09-17T13:34:17.270Z,75.70
2022-09-17T13:35:18.680Z,72.36
2022-09-17T13:36:41.189Z,71.96
2022-09-17T13:37:44.226Z,73.55
2022-09-17T13:38:45.596Z,72.23
2022-09-17T13:39:50.787Z,74.92
2022-09-17T13:40:53.281Z,75.23
2022-09-17T13:42:06.440Z,77.27
2022-09-17T13:43:13.827Z,75.15
2022-09-17T13:44:23.408Z,75.68
2022-09-17T13:45:26.672Z,74.59
2022-09-17T13:46:29.088Z,73.63
2022-09-17T13:47:37.019Z,74.75
2022-09-17T13:48:49.198Z,73.31
2022-09-17T13:49:55.075Z,71.74
2022-09-17T13:50:57.072Z,70.81
2022-09-17T13:51:58.468Z,70.59
2022-09-17T13:53:07.340Z,69.59
2022-09-17T13:54:10.647Z,71.84
2022-09-17T13:55:42.664Z,71.38
2022-09-17T13:57:07.055Z,69.49
2022-09-17T13:58:12.608Z,68.30
2022-09-17T13:59:21.454Z,69.41
2022-09-17T14:00:57.132Z,66.63
2022-09-17T14:02:18.777Z,69.90
2022-09-17T14:03:37.036Z,69.40
2022-09-17T14:04:41.539Z,67.95
2022-09-17T14:05:42.992Z,66.12
2022-09-17T14:06:51.409Z,67.64
2022-09-17T14:08:14.006Z,68.79
2022-09-17T14:09:36.064Z,68.07
2022-09-17T14:10:42.632Z,65.79
2022-09-17T14:11:43.978Z,66.91
2022-09-17T14:12:48.700Z,67.59
2022-09-17T14:13:53.781Z,65.85
2022-09-17T14:14:55.148Z,63.69
2022-09-17T14:16:02.098Z,62.07
2022-09-17T14:17:04.483Z,63.51
2022-09-17T14:18:27.697Z,63.32
2022-09-17T14:19:51.076Z,66.29
2022-09-17T14:21:25.120Z,68.22
2022-09-17T14:22:27.069Z,70.27
2022-09-17T14:23:28.437Z,69.96
2022-09-17T14:24:46.469Z,70.07
2022-09-17T14:25:54.092Z,69.00
2022-09-17T14:27:02.153Z,68.94
2022-09-17T14:28:13.843Z,69.21
2022-09-17T14:29:23.390Z,69.53
2022-09-17T14:30:31.360Z,70.10
2022-09-17T14:31:36.754Z,68.57
2022-09-17T14:32:51.701Z,66.96
2022-09-17T14:33:53.483Z,68.07
2022-09-17T14:34:54.854Z,69.45
2022-09-17T14:36:10.274Z,68.05
2022-09-17T14:37:16.774Z,68.11
2022-09-17T14:38:25.426Z,68.69
2022-09-17T14:39:38.293Z,67.14
2022-09-17T14:40:46.250Z,67.67
2022-09-17T14:41:48.757Z,66.31
2022-09-17T14:42:55.080Z,66.32
2022-09-17T14:44:19.557Z,62.78
2022-09-17T14:45:26.146Z,63.21
2022-09-17T14:46:37.726Z,64.17
2022-09-17T14:47:39.226Z,64.15
2022-09-17T14:48:41.336Z,62.76
2022-09-17T14:49:43.153Z,64.17
2022-09-17T14:50:44.709Z,65.08
2022-09-17T14:55:27.456Z,68.95
2022-09-17T14:56:29.261Z,68.67
2022-09-17T14:57:31.306Z,69.02
2022-09-17T14:58:38.277Z,69.41
2022-09-17T14:59:52.841Z,69.33
2022-09-17T15:00:54.320Z,68.39
2022-09-17T15:01:56.299Z,68.64
2022-09-17T15:03:00.376Z,69.57
2022-09-17T15:04:13.777Z,67.56
2022-09-17T15:05:39.315Z,68.18
2022-09-17T15:06:42.748Z,68.24
2022-09-17T15:07:45.324Z,69.08
2022-09-17T15:08:46.944Z,68.79
2022-09-17T15:14:34.596Z,71.11
2022-09-17T15:15:36.688Z,73.26
2022-09-17T15:16:38.757Z,72.05
2022-09-17T15:17:42.615Z,73.15
2022-09-17T15:18:51.819Z,73.11
2022-09-17T15:19:57.449Z,73.51
2022-09-17T15:21:01.509Z,70.66
2022-09-17T15:22:29.064Z,68.38
2022-09-17T15:23:33.813Z,67.91
2022-09-17T15:24:56.613Z,66.08
2022-09-17T15:25:58.895Z,64.97
2022-09-17T15:27:09.603Z,64.46
2022-09-17T15:28:36.516Z,62.88
2022-09-17T15:29:42.617Z,63.02
2022-09-17T15:30:45.632Z,62.31
2022-09-17T15:31:47.176Z,64.16
2022-09-17T15:32:55.918Z,65.65
2022-09-17T15:34:01.026Z,64.98
2022-09-17T15:35:11.564Z,64.71
2022-09-17T15:36:18.548Z,62.58
2022-09-17T15:37:25.105Z,61.28
2022-09-17T15:38:28.483Z,59.73
2022-09-17T15:39:31.766Z,62.00
2022-09-17T15:40:43.480Z,62.30
2022-09-17T15:41:55.757Z,61.33
2022-09-17T15:43:06.281Z,60.09
2022-09-17T15:44:29.194Z,61.46
2022-09-17T15:45:38.782Z,63.87
2022-09-17T15:46:40.464Z,65.65
2022-09-17T15:51:23.501Z,65.81
2022-09-17T15:52:31.245Z,66.65
2022-09-17T15:53:35.078Z,66.62
2022-09-17T15:54:37.546Z,65.92
2022-09-17T15:55:42.678Z,65.96
2022-09-17T15:56:44.183Z,66.70
2022-09-17T15:57:45.569Z,65.09
2022-09-17T15:58:47.005Z,64.72
2022-09-17T15:59:49.359Z,63.40
2022-09-17T16:01:15.602Z,64.23
2022-09-17T16:02:31.520Z,62.75
2022-09-17T16:03:58.454Z,61.33
2022-09-17T16:05:25.926Z,61.57
2022-09-17T16:06:27.288Z,61.01
2022-09-17T16:07:30.379Z,61.70
2022-09-17T16:08:35.109Z,63.04
2022-09-17T16:09:48.026Z,63.00
2022-09-17T16:10:49.585Z,62.87
2022-09-17T16:11:50.937Z,63.50
2022-09-17T16:17:28.025Z,66.92
2022-09-17T16:18:29.597Z,66.79
2022-09-17T16:23:37.492Z,66.88
